createdAt,value
2018-08-12T00:00:56.189Z,10.90
2018-08-12T00:03:24.812Z,10.90
2018-08-12T00:05:53.316Z,10.90
2018-08-12T00:08:21.840Z,10.80
2018-08-12T00:10:50.384Z,10.80
2018-08-12T00:13:18.915Z,10.70
2018-08-12T00:15:47.499Z,10.70
2018-08-12T00:18:16.025Z,10.60
2018-08-12T00:20:44.624Z,10.60
2018-08-12T00:23:13.125Z,10.50
2018-08-12T00:25:41.725Z,10.50
2018-08-12T00:28:10.241Z,10.50
2018-08-12T00:30:38.808Z,10.50
2018-08-12T00:33:07.308Z,10.50
2018-08-12T00:35:35.868Z,10.50
2018-08-12T00:38:04.427Z,10.50
2018-08-12T00:40:32.952Z,10.50
2018-08-12T00:43:01.592Z,10.50
2018-08-12T00:45:30.126Z,10.50
2018-08-12T00:47:58.700Z,10.50
2018-08-12T00:50:27.241Z,10.60
2018-08-12T00:52:55.812Z,10.60
2018-08-12T00:55:24.366Z,10.70
2018-08-12T00:57:52.899Z,10.80
2018-08-12T01:00:22.689Z,10.80
2018-08-12T01:02:51.236Z,10.90
2018-08-12T01:05:20.207Z,10.90
2018-08-12T01:07:49.840Z,10.90
2018-08-12T01:10:19.060Z,10.90
2018-08-12T01:12:47.704Z,10.90
2018-08-12T01:15:18.494Z,11.00
2018-08-12T01:17:47.308Z,11.00
2018-08-12T01:20:25.428Z,11.00
2018-08-12T01:22:53.997Z,11.00
2018-08-12T01:25:23.000Z,11.00
2018-08-12T01:27:51.540Z,11.10
2018-08-12T01:30:21.264Z,11.10
2018-08-12T01:32:50.189Z,11.10
2018-08-12T01:35:19.087Z,11.20
2018-08-12T01:37:48.310Z,11.20
2018-08-12T01:40:17.955Z,11.30
2018-08-12T01:42:46.799Z,11.30
2018-08-12T01:45:17.985Z,11.30
2018-08-12T01:47:46.596Z,11.30
2018-08-12T01:50:16.471Z,11.30
2018-08-12T01:52:45.018Z,11.30
2018-08-12T01:55:13.568Z,11.30
2018-08-12T01:57:42.111Z,11.30
2018-08-12T02:00:14.258Z,11.20
2018-08-12T02:02:42.834Z,11.20
2018-08-12T02:05:11.337Z,11.20
2018-08-12T02:07:39.922Z,11.20
2018-08-12T02:10:09.716Z,11.20
2018-08-12T02:12:38.314Z,11.20
2018-08-12T02:15:07.768Z,11.10
2018-08-12T02:17:36.297Z,11.10
2018-08-12T02:20:05.868Z,11.10
2018-08-12T02:22:34.495Z,11.00
2018-08-12T02:25:10.288Z,10.90
2018-08-12T02:27:38.906Z,10.90
2018-08-12T02:30:09.306Z,10.80
2018-08-12T02:32:37.828Z,10.80
2018-08-12T02:35:06.483Z,10.80
2018-08-12T02:37:35.048Z,10.70
2018-08-12T02:40:04.992Z,10.60
2018-08-12T02:42:33.568Z,10.60
2018-08-12T02:45:02.164Z,10.60
2018-08-12T02:47:30.684Z,10.50
2018-08-12T02:49:59.236Z,10.50
2018-08-12T02:52:27.822Z,10.50
2018-08-12T02:54:56.375Z,10.50
2018-08-12T02:57:24.861Z,10.40
2018-08-12T02:59:53.407Z,10.30
2018-08-12T03:02:21.956Z,10.30
2018-08-12T03:04:50.517Z,10.20
2018-08-12T03:07:19.109Z,10.20
2018-08-12T03:09:47.641Z,10.20
2018-08-12T03:12:16.193Z,10.20
2018-08-12T03:14:44.753Z,10.10
2018-08-12T03:17:13.374Z,10.10
2018-08-12T03:19:41.853Z,10.10
2018-08-12T03:22:10.402Z,10.10
2018-08-12T03:24:39.184Z,10.20
2018-08-12T03:27:07.824Z,10.20
2018-08-12T03:29:36.344Z,10.20
2018-08-12T03:32:04.896Z,10.30
2018-08-12T03:34:33.448Z,10.30
2018-08-12T03:37:02.269Z,10.40
2018-08-12T03:39:30.812Z,10.50
2018-08-12T03:41:59.365Z,10.60
2018-08-12T03:44:27.871Z,10.60
2018-08-12T03:46:56.437Z,10.70
2018-08-12T03:49:24.964Z,10.80
2018-08-12T03:51:53.532Z,10.80
2018-08-12T03:54:22.074Z,10.90
2018-08-12T03:56:50.643Z,10.90
2018-08-12T03:59:19.196Z,11.00
2018-08-12T04:01:47.708Z,11.00
2018-08-12T04:04:16.248Z,11.00
2018-08-12T04:06:44.951Z,11.00
2018-08-12T04:09:13.486Z,11.00
2018-08-12T04:11:42.070Z,11.00
2018-08-12T04:14:10.550Z,11.00
2018-08-12T04:16:39.108Z,11.00
2018-08-12T04:19:07.685Z,11.10
2018-08-12T04:21:36.251Z,11.10
2018-08-12T04:24:04.764Z,11.10
2018-08-12T04:26:33.327Z,11.20
2018-08-12T04:29:01.800Z,11.20
2018-08-12T04:31:30.347Z,11.30
2018-08-12T04:33:58.864Z,11.30
2018-08-12T04:36:27.416Z,11.40
2018-08-12T04:38:55.932Z,11.40
2018-08-12T04:41:24.667Z,11.40
2018-08-12T04:43:53.246Z,11.50
2018-08-12T04:46:21.716Z,11.50
2018-08-12T04:48:50.270Z,11.50
2018-08-12T04:51:18.805Z,11.50
2018-08-12T04:53:47.324Z,11.50
2018-08-12T04:56:15.860Z,11.60
2018-08-12T04:58:44.337Z,11.70
2018-08-12T05:01:12.915Z,11.80
2018-08-12T05:03:41.441Z,11.90
2018-08-12T05:06:10.003Z,12.00
2018-08-12T05:08:38.504Z,12.00
2018-08-12T05:11:07.036Z,12.10
2018-08-12T05:13:35.558Z,12.10
2018-08-12T05:16:04.159Z,12.20
2018-08-12T05:18:32.693Z,12.40
2018-08-12T05:21:01.193Z,12.50
2018-08-12T05:23:29.720Z,12.70
2018-08-12T05:25:58.230Z,12.80
2018-08-12T05:28:26.804Z,12.90
2018-08-12T05:30:55.322Z,13.00
2018-08-12T05:33:23.849Z,13.10
2018-08-12T05:35:52.419Z,13.10
2018-08-12T05:38:20.944Z,13.20
2018-08-12T05:40:49.515Z,13.20
2018-08-12T05:43:18.079Z,13.30
2018-08-12T05:45:46.571Z,13.30
2018-08-12T05:48:15.113Z,13.30
2018-08-12T05:50:43.631Z,13.30
2018-08-12T05:53:12.208Z,13.30
2018-08-12T05:55:40.706Z,13.30
2018-08-12T05:58:09.264Z,13.40
2018-08-12T06:00:37.835Z,13.50
2018-08-12T06:03:06.392Z,13.60
2018-08-12T06:05:34.960Z,13.70
2018-08-12T06:08:03.448Z,13.80
2018-08-12T06:10:32.043Z,13.90
2018-08-12T06:13:00.563Z,14.00
2018-08-12T06:15:29.144Z,14.00
2018-08-12T06:17:57.644Z,14.10
2018-08-12T06:20:26.209Z,14.10
2018-08-12T06:22:54.757Z,14.20
2018-08-12T06:25:23.341Z,14.30
2018-08-12T06:27:51.828Z,14.40
2018-08-12T06:30:20.407Z,14.50
2018-08-12T06:32:48.915Z,14.60
2018-08-12T06:35:17.476Z,14.70
2018-08-12T06:37:46.018Z,14.80
2018-08-12T06:40:15.084Z,14.90
2018-08-12T06:42:44.999Z,15.00
2018-08-12T06:45:16.201Z,15.00
2018-08-12T06:47:45.933Z,15.10
2018-08-12T06:50:14.463Z,15.20
2018-08-12T06:52:43.075Z,15.20
2018-08-12T06:55:12.737Z,15.20
2018-08-12T06:57:42.337Z,15.30
2018-08-12T07:00:12.763Z,15.30
2018-08-12T07:02:41.318Z,15.30
2018-08-12T07:05:10.862Z,15.50
2018-08-12T07:07:39.432Z,15.60
2018-08-12T07:10:10.666Z,15.70
2018-08-12T07:12:39.302Z,15.80
2018-08-12T07:15:11.397Z,15.90
2018-08-12T07:17:40.600Z,16.10
2018-08-12T07:20:11.104Z,16.30
2018-08-12T07:22:39.960Z,16.40
2018-08-12T07:25:09.835Z,16.50
2018-08-12T07:27:38.942Z,16.50
2018-08-12T07:30:09.266Z,16.60
2018-08-12T07:32:37.796Z,16.70
2018-08-12T07:35:07.089Z,16.80
2018-08-12T07:37:35.581Z,17.00
2018-08-12T07:40:05.954Z,17.20
2018-08-12T07:42:34.463Z,17.40
2018-08-12T07:45:03.048Z,17.60
2018-08-12T07:47:31.612Z,17.70
2018-08-12T07:50:00.121Z,17.80
2018-08-12T07:52:28.669Z,17.90
2018-08-12T07:54:57.253Z,18.00
2018-08-12T07:57:25.879Z,18.10
2018-08-12T07:59:54.379Z,18.20
2018-08-12T08:02:23.113Z,18.40
2018-08-12T08:04:51.639Z,18.50
2018-08-12T08:07:20.184Z,18.60
2018-08-12T08:09:48.785Z,18.60
2018-08-12T08:12:17.318Z,18.50
2018-08-12T08:14:45.864Z,18.40
2018-08-12T08:17:14.412Z,18.30
2018-08-12T08:19:43.027Z,18.30
2018-08-12T08:22:11.576Z,18.30
2018-08-12T08:24:40.098Z,18.40
2018-08-12T08:27:08.608Z,18.40
2018-08-12T08:29:37.192Z,18.40
2018-08-12T08:32:05.760Z,18.30
2018-08-12T08:34:34.228Z,18.30
2018-08-12T08:37:02.884Z,18.30
2018-08-12T08:39:31.400Z,18.30
2018-08-12T08:42:00.007Z,18.20
2018-08-12T08:44:28.576Z,18.10
2018-08-12T08:46:57.168Z,18.10
2018-08-12T08:49:25.764Z,18.10
2018-08-12T08:51:54.302Z,18.00
2018-08-12T08:54:22.872Z,18.00
2018-08-12T08:56:51.359Z,17.90
2018-08-12T08:59:19.955Z,18.00
2018-08-12T09:01:48.507Z,18.00
2018-08-12T09:04:17.049Z,18.10
2018-08-12T09:06:45.639Z,18.30
2018-08-12T09:09:15.949Z,18.50
2018-08-12T09:11:44.841Z,18.60
2018-08-12T09:14:13.422Z,18.70
2018-08-12T09:16:42.064Z,18.90
2018-08-12T09:19:10.599Z,19.10
2018-08-12T09:21:39.132Z,19.30
2018-08-12T09:24:07.841Z,19.40
2018-08-12T09:26:36.372Z,19.70
2018-08-12T09:29:04.904Z,20.00
2018-08-12T09:31:33.444Z,20.10
2018-08-12T09:34:01.961Z,20.20
2018-08-12T09:36:30.548Z,20.30
2018-08-12T09:38:59.050Z,20.40
2018-08-12T09:41:27.872Z,20.60
2018-08-12T09:43:56.381Z,20.60
2018-08-12T09:46:24.921Z,20.70
2018-08-12T09:48:53.779Z,20.70
2018-08-12T09:51:22.354Z,20.90
2018-08-12T09:53:50.911Z,21.10
2018-08-12T09:56:19.473Z,21.40
2018-08-12T09:58:47.988Z,21.60
2018-08-12T10:01:16.529Z,21.90
2018-08-12T10:03:45.074Z,22.20
2018-08-12T10:06:13.641Z,22.50
2018-08-12T10:08:42.142Z,22.60
2018-08-12T10:11:10.724Z,22.50
2018-08-12T10:13:39.256Z,22.50
2018-08-12T10:16:07.910Z,22.60
2018-08-12T10:18:36.493Z,22.70
2018-08-12T10:21:05.101Z,22.80
2018-08-12T10:23:33.673Z,22.80
2018-08-12T10:26:02.224Z,22.80
2018-08-12T10:28:30.762Z,22.80
2018-08-12T10:30:59.320Z,22.70
2018-08-12T10:33:28.125Z,22.70
2018-08-12T10:35:56.626Z,22.70
2018-08-12T10:38:25.173Z,22.80
2018-08-12T10:40:53.674Z,22.90
2018-08-12T10:43:22.204Z,22.90
2018-08-12T10:45:50.727Z,22.80
2018-08-12T10:48:19.301Z,22.60
2018-08-12T10:50:47.824Z,22.40
2018-08-12T10:53:17.053Z,22.30
2018-08-12T10:55:45.706Z,22.40
2018-08-12T10:58:14.632Z,22.50
2018-08-12T11:00:43.260Z,22.80
2018-08-12T11:03:11.856Z,23.00
2018-08-12T11:05:40.428Z,23.10
2018-08-12T11:08:09.050Z,23.10
2018-08-12T11:10:37.633Z,23.00
2018-08-12T11:13:06.260Z,23.10
2018-08-12T11:15:34.781Z,23.50
2018-08-12T11:18:03.377Z,24.10
2018-08-12T11:20:31.972Z,24.50
2018-08-12T11:23:00.515Z,24.50
2018-08-12T11:25:29.280Z,24.50
2018-08-12T11:27:57.808Z,24.30
2018-08-12T11:30:26.306Z,24.20
2018-08-12T11:32:54.845Z,24.20
2018-08-12T12:50:05.684Z,23.50
2018-08-12T12:52:34.220Z,23.60
2018-08-12T12:55:02.792Z,23.80
2018-08-12T12:57:31.312Z,23.80
2018-08-12T12:59:59.860Z,24.00
2018-08-12T13:02:29.778Z,24.20
2018-08-12T13:04:58.763Z,24.50
2018-08-12T13:07:27.341Z,24.80
2018-08-12T13:09:55.864Z,25.20
2018-08-12T13:12:24.425Z,25.20
2018-08-12T13:14:52.936Z,25.50
2018-08-12T13:17:21.480Z,25.70
2018-08-12T13:19:50.057Z,25.80
2018-08-12T13:22:18.731Z,25.70
2018-08-12T13:24:47.687Z,25.80
2018-08-12T13:27:16.269Z,25.90
2018-08-12T13:29:44.831Z,25.80
2018-08-12T13:32:13.413Z,25.40
2018-08-12T13:34:41.912Z,25.20
2018-08-12T13:37:10.435Z,25.40
2018-08-12T13:39:38.981Z,25.70
2018-08-12T13:42:07.504Z,25.80
2018-08-12T13:44:36.032Z,26.00
2018-08-12T13:47:04.604Z,26.10
2018-08-12T13:49:33.172Z,26.10
2018-08-12T13:52:02.279Z,26.10
2018-08-12T13:54:30.892Z,26.10
2018-08-12T13:56:59.435Z,26.10
2018-08-12T13:59:28.018Z,25.90
2018-08-12T14:01:56.851Z,25.70
2018-08-12T14:04:25.448Z,25.50
2018-08-12T14:06:54.692Z,25.40
2018-08-12T14:09:24.805Z,25.40
2018-08-12T14:11:53.412Z,25.40
2018-08-12T14:14:23.205Z,25.40
2018-08-12T14:16:56.593Z,25.60
2018-08-12T14:19:29.021Z,25.80
2018-08-12T14:21:59.599Z,25.90
2018-08-12T14:24:30.540Z,25.90
2018-08-12T14:27:08.368Z,25.80
2018-08-12T14:29:43.187Z,25.70
2018-08-12T14:32:13.181Z,25.80
2018-08-12T14:34:43.438Z,25.70
2018-08-12T14:37:13.687Z,25.80
2018-08-12T14:39:44.861Z,25.80
2018-08-12T14:42:15.423Z,25.90
2018-08-12T14:44:45.627Z,25.90
2018-08-12T14:47:15.923Z,25.90
2018-08-12T14:49:46.415Z,25.90
2018-08-12T14:52:16.625Z,25.80
2018-08-12T14:54:48.048Z,25.90
2018-08-12T14:57:18.434Z,26.20
2018-08-12T14:59:49.480Z,26.30
2018-08-12T15:02:20.287Z,26.40
2018-08-12T15:04:50.300Z,26.70
2018-08-12T15:07:22.122Z,26.90
2018-08-12T15:09:53.375Z,27.00
2018-08-12T15:12:24.246Z,26.70
2018-08-12T15:14:54.569Z,26.60
2018-08-12T15:17:25.570Z,26.40
2018-08-12T15:19:57.326Z,26.00
2018-08-12T15:22:28.191Z,25.80
2018-08-12T15:24:59.019Z,25.60
2018-08-12T15:27:29.478Z,25.40
2018-08-12T15:29:59.572Z,25.30
2018-08-12T15:32:29.696Z,25.30
2018-08-12T15:35:02.000Z,25.30
2018-08-12T15:37:32.527Z,25.40
2018-08-12T15:40:04.061Z,25.60
2018-08-12T15:42:36.609Z,25.70
2018-08-12T15:45:09.138Z,25.70
2018-08-12T15:47:40.329Z,25.50
2018-08-12T15:50:10.029Z,25.40
2018-08-12T15:52:38.973Z,25.20
2018-08-12T15:55:08.115Z,25.20
2018-08-12T15:57:36.795Z,25.20
2018-08-12T16:00:09.124Z,25.10
2018-08-12T16:02:37.979Z,25.10
2018-08-12T16:05:06.660Z,25.00
2018-08-12T16:07:35.184Z,24.90
2018-08-12T16:10:04.034Z,24.80
2018-08-12T16:12:32.617Z,24.80
2018-08-12T16:15:01.116Z,24.70
2018-08-12T16:17:29.668Z,24.70
2018-08-12T16:19:58.208Z,24.70
2018-08-12T16:22:26.732Z,24.70
2018-08-12T16:24:55.280Z,24.60
2018-08-12T16:27:23.864Z,24.60
2018-08-12T16:29:52.412Z,24.60
2018-08-12T16:32:20.955Z,24.60
2018-08-12T16:34:49.501Z,24.60
2018-08-12T16:37:18.046Z,24.60
2018-08-12T16:39:46.622Z,24.60
2018-08-12T16:42:15.163Z,24.60
2018-08-12T16:44:43.662Z,24.70
2018-08-12T16:47:12.272Z,24.70
2018-08-12T16:49:40.798Z,24.70
2018-08-12T16:52:09.317Z,24.80
2018-08-12T16:54:37.833Z,24.80
2018-08-12T16:57:06.476Z,24.90
2018-08-12T16:59:35.016Z,24.90
2018-08-12T17:02:03.573Z,24.90
2018-08-12T17:04:32.150Z,24.80
2018-08-12T17:07:00.685Z,24.80
2018-08-12T17:09:29.196Z,24.70
2018-08-12T17:11:57.736Z,24.70
2018-08-12T17:14:26.238Z,24.60
2018-08-12T17:16:54.737Z,24.50
2018-08-12T17:19:23.283Z,24.40
2018-08-12T17:21:51.778Z,24.30
2018-08-12T17:24:20.343Z,24.20
2018-08-12T17:26:48.991Z,24.10
2018-08-12T17:29:17.487Z,24.00
2018-08-12T17:31:46.025Z,23.90
2018-08-12T17:34:14.511Z,23.80
2018-08-12T17:36:43.068Z,23.70
2018-08-12T17:39:11.933Z,23.60
2018-08-12T17:41:40.508Z,23.50
2018-08-12T17:44:09.076Z,23.40
2018-08-12T17:46:37.628Z,23.40
2018-08-12T17:49:06.108Z,23.30
2018-08-12T17:51:34.631Z,23.30
2018-08-12T17:54:03.196Z,23.20
2018-08-12T17:56:31.820Z,23.10
2018-08-12T17:59:00.362Z,23.10
2018-08-12T18:01:28.959Z,23.00
2018-08-12T18:03:57.522Z,23.00
2018-08-12T18:06:26.019Z,23.00
2018-08-12T18:08:54.591Z,22.90
2018-08-12T18:11:23.139Z,22.80
2018-08-12T18:13:51.715Z,22.80
2018-08-12T18:16:20.308Z,22.70
2018-08-12T18:18:48.820Z,22.70
2018-08-12T18:21:17.376Z,22.60
2018-08-12T18:23:45.871Z,22.60
2018-08-12T18:26:14.455Z,22.50
2018-08-12T18:28:43.002Z,22.40
2018-08-12T18:31:11.575Z,22.40
2018-08-12T18:33:40.089Z,22.30
2018-08-12T18:36:08.580Z,22.20
2018-08-12T18:38:37.261Z,22.20
2018-08-12T18:41:05.813Z,22.20
2018-08-12T18:43:34.274Z,22.10
2018-08-12T18:46:02.793Z,22.00
2018-08-12T18:48:31.312Z,22.00
2018-08-12T18:50:59.847Z,21.90
2018-08-12T18:53:28.372Z,21.80
2018-08-12T18:55:56.863Z,21.70
2018-08-12T18:58:25.383Z,21.70
2018-08-12T19:00:53.913Z,21.60
2018-08-12T19:03:22.432Z,21.60
2018-08-12T19:05:50.916Z,21.50
2018-08-12T19:08:19.461Z,21.50
2018-08-12T19:10:47.943Z,21.40
2018-08-12T19:13:16.457Z,21.30
2018-08-12T19:15:45.030Z,21.30
2018-08-12T19:18:13.620Z,21.20
2018-08-12T19:20:42.179Z,21.10
2018-08-12T19:23:10.663Z,21.10
2018-08-12T19:25:39.191Z,21.00
2018-08-12T19:28:07.794Z,21.00
2018-08-12T19:30:36.337Z,20.90
2018-08-12T19:33:04.915Z,20.90
2018-08-12T19:35:33.468Z,20.80
2018-08-12T19:38:02.034Z,20.70
2018-08-12T19:40:30.880Z,20.60
2018-08-12T19:42:59.510Z,20.50
2018-08-12T19:45:28.040Z,20.50
2018-08-12T19:47:56.568Z,20.40
2018-08-12T19:50:25.093Z,20.30
2018-08-12T19:52:53.629Z,20.30
2018-08-12T19:55:22.143Z,20.20
2018-08-12T19:57:50.750Z,20.20
2018-08-12T20:00:19.283Z,20.10
2018-08-12T20:02:47.825Z,20.10
2018-08-12T20:05:16.326Z,20.00
2018-08-12T20:07:45.451Z,20.00
2018-08-12T20:10:13.990Z,20.00
2018-08-12T20:12:42.534Z,20.00
2018-08-12T20:15:11.909Z,20.00
2018-08-12T20:17:40.896Z,19.90
2018-08-12T20:20:11.399Z,19.90
2018-08-12T20:22:40.036Z,19.90
2018-08-12T20:25:08.807Z,19.80
2018-08-12T20:27:37.382Z,19.80
2018-08-12T20:30:07.815Z,19.70
2018-08-12T20:32:36.364Z,19.70
2018-08-12T20:35:05.191Z,19.70
2018-08-12T20:37:33.718Z,19.70
2018-08-12T20:40:02.739Z,19.70
2018-08-12T20:42:31.300Z,19.70
2018-08-12T20:44:59.915Z,19.70
2018-08-12T20:47:28.489Z,19.70
2018-08-12T20:49:57.092Z,19.70
2018-08-12T20:52:25.622Z,19.60
2018-08-12T20:54:54.093Z,19.60
2018-08-12T20:57:22.640Z,19.60
2018-08-12T20:59:55.576Z,19.60
2018-08-12T21:02:24.110Z,19.70
2018-08-12T21:04:52.599Z,19.60
2018-08-12T21:07:21.149Z,19.60
2018-08-12T21:09:49.634Z,19.60
2018-08-12T21:12:18.338Z,19.70
2018-08-12T21:14:46.854Z,19.70
2018-08-12T21:17:15.887Z,19.70
2018-08-12T21:19:44.511Z,19.70
2018-08-12T21:22:13.097Z,19.70
2018-08-12T21:24:41.637Z,19.70
2018-08-12T21:27:10.160Z,19.70
2018-08-12T21:29:38.875Z,19.70
2018-08-12T21:32:07.534Z,19.70
2018-08-12T21:34:36.098Z,19.70
2018-08-12T21:37:04.724Z,19.70
2018-08-12T21:39:33.327Z,19.70
2018-08-12T21:42:01.853Z,19.70
2018-08-12T21:44:30.507Z,19.70
2018-08-12T21:46:59.010Z,19.60
2018-08-12T21:49:27.588Z,19.60
2018-08-12T21:51:56.172Z,19.50
2018-08-12T21:54:26.635Z,19.40
2018-08-12T21:56:55.302Z,19.30
2018-08-12T21:59:23.937Z,19.30
2018-08-12T22:01:54.120Z,19.30
2018-08-12T22:04:23.469Z,19.20
2018-08-12T22:06:52.406Z,19.20
2018-08-12T22:09:21.008Z,19.10
2018-08-12T22:11:49.497Z,19.10
2018-08-12T22:14:18.151Z,19.10
2018-08-12T22:16:46.697Z,19.00
2018-08-12T22:19:15.355Z,19.00
2018-08-12T22:21:43.865Z,18.90
2018-08-12T22:24:12.431Z,18.90
2018-08-12T22:26:42.453Z,18.80
2018-08-12T22:29:11.055Z,18.90
2018-08-12T22:31:39.667Z,18.80
2018-08-12T22:34:09.080Z,18.80
2018-08-12T22:36:37.901Z,18.80
2018-08-12T22:39:08.022Z,18.70
2018-08-12T22:41:36.560Z,18.70
2018-08-12T22:44:05.205Z,18.60
2018-08-12T22:46:33.824Z,18.60
2018-08-12T22:49:02.318Z,18.50
2018-08-12T22:51:31.290Z,18.50
2018-08-12T22:53:59.825Z,18.40
2018-08-12T22:56:28.456Z,18.50
2018-08-12T22:58:57.067Z,18.40
2018-08-12T23:01:25.626Z,18.40
2018-08-12T23:03:54.572Z,18.40
2018-08-12T23:06:23.104Z,18.40
2018-08-12T23:08:51.651Z,18.40
2018-08-12T23:11:20.112Z,18.40
2018-08-12T23:13:48.616Z,18.40
2018-08-12T23:16:28.379Z,18.40
2018-08-12T23:18:56.982Z,18.40
2018-08-12T23:21:25.483Z,18.40
2018-08-12T23:23:54.110Z,18.40
2018-08-12T23:26:23.843Z,18.40
2018-08-12T23:28:52.343Z,18.40
2018-08-12T23:31:20.871Z,18.40
2018-08-12T23:33:49.340Z,18.40
2018-08-12T23:36:17.914Z,18.40
2018-08-12T23:38:46.377Z,18.40
2018-08-12T23:41:14.896Z,18.40
2018-08-12T23:43:43.455Z,18.50
2018-08-12T23:46:12.534Z,18.40
2018-08-12T23:48:41.044Z,18.50
2018-08-12T23:51:09.575Z,18.50
2018-08-12T23:53:38.117Z,18.50
2018-08-12T23:56:06.599Z,18.60
2018-08-12T23:58:35.139Z,18.60
